Time;durP1;ratioP1;P1;durP2;ratioP2;P2;SDS_P1;SDS_P2;PMS_P1;PMS_P2;Temp;Humidity;BMP_temperature;BMP_pressure;BME280_temperature;BME280_humidity;BME280_pressure;Samples;Min_cycle;Max_cycle;Signal;HPM_P1;HPM_P2
2021/05/15 00:00:14;;;;;;;2.17;0.20;;;;;;;;;;4994164;28;20057;-68
2021/05/15 00:02:41;;;;;;;3.33;0.30;;;;;;;;;;5013079;28;20029;-68
2021/05/15 00:05:09;;;;;;;1.25;0.22;;;;;;;;;;5014380;28;20023;-67
2021/05/15 00:07:37;;;;;;;5.82;0.60;;;;;;;;;;4996360;28;20057;-67
2021/05/15 00:10:06;;;;;;;0.57;0.10;;;;;;;;;;5011549;28;20038;-68
2021/05/15 00:12:33;;;;;;;1.00;0.20;;;;;;;;;;5011746;28;20030;-68
2021/05/15 00:15:02;;;;;;;1.90;0.40;;;;;;;;;;5011267;28;20443;-68
2021/05/15 00:17:29;;;;;;;3.75;0.50;;;;;;;;;;5014691;28;20052;-68
2021/05/15 00:19:57;;;;;;;2.72;0.40;;;;;;;;;;4995151;28;20087;-68
2021/05/15 00:22:24;;;;;;;2.55;0.30;;;;;;;;;;5011155;28;20029;-68
2021/05/15 00:24:51;;;;;;;2.47;0.30;;;;;;;;;;4994706;28;20046;-68
2021/05/15 00:27:18;;;;;;;3.60;0.30;;;;;;;;;;5014365;28;20026;-68
2021/05/15 00:29:45;;;;;;;1.60;0.47;;;;;;;;;;4995815;28;20038;-68
2021/05/15 00:32:12;;;;;;;2.50;0.30;;;;;;;;;;5014580;28;20044;-68
2021/05/15 00:34:39;;;;;;;1.15;0.30;;;;;;;;;;5006979;28;20442;-68
2021/05/15 00:37:07;;;;;;;2.40;0.40;;;;;;;;;;5013984;28;20018;-68
2021/05/15 00:39:34;;;;;;;1.58;0.28;;;;;;;;;;5011724;28;20037;-68
2021/05/15 00:42:01;;;;;;;3.00;0.40;;;;;;;;;;4996427;28;20390;-68
2021/05/15 00:44:31;;;;;;;1.38;0.25;;;;;;;;;;5012998;28;20498;-68
2021/05/15 00:46:58;;;;;;;2.35;0.43;;;;;;;;;;5012711;28;20025;-68
2021/05/15 00:49:25;;;;;;;1.45;0.30;;;;;;;;;;5011348;28;20083;-68
2021/05/15 00:51:53;;;;;;;2.05;0.50;;;;;;;;;;4996543;28;20117;-68
2021/05/15 00:54:20;;;;;;;1.27;0.20;;;;;;;;;;5012711;28;20457;-68
2021/05/15 00:56:47;;;;;;;1.83;0.50;;;;;;;;;;5013656;28;20073;-68
2021/05/15 00:59:15;;;;;;;1.77;0.50;;;;;;;;;;5012100;28;20444;-68
2021/05/15 01:01:42;;;;;;;3.20;0.73;;;;;;;;;;5013693;28;20104;-68
2021/05/15 01:04:09;;;;;;;1.70;0.20;;;;;;;;;;5011779;28;20026;-68
2021/05/15 01:06:38;;;;;;;2.03;0.50;;;;;;;;;;4996314;28;20437;-68
2021/05/15 01:09:06;;;;;;;2.97;0.85;;;;;;;;;;5012032;28;20482;-68
2021/05/15 01:11:34;;;;;;;2.28;0.10;;;;;;;;;;5013862;28;20026;-68
2021/05/15 01:14:02;;;;;;;1.10;0.30;;;;;;;;;;4994177;28;20037;-68
2021/05/15 01:16:30;;;;;;;0.88;0.30;;;;;;;;;;5010207;28;20376;-68
2021/05/15 01:18:58;;;;;;;2.17;0.35;;;;;;;;;;5012144;28;20032;-68
2021/05/15 01:21:25;;;;;;;2.13;0.30;;;;;;;;;;5013280;28;20471;-67
2021/05/15 01:23:52;;;;;;;1.20;0.20;;;;;;;;;;4994081;28;20026;-68
2021/05/15 01:26:23;;;;;;;3.95;0.40;;;;;;;;;;5011288;28;20061;-68
2021/05/15 01:28:52;;;;;;;0.77;0.30;;;;;;;;;;5009520;28;20034;-68
2021/05/15 01:31:20;;;;;;;1.40;0.47;;;;;;;;;;5013359;28;20233;-67
2021/05/15 01:33:47;;;;;;;0.98;0.40;;;;;;;;;;5011696;28;20398;-68
2021/05/15 01:36:14;;;;;;;1.63;0.20;;;;;;;;;;5013215;28;20022;-68
2021/05/15 01:38:42;;;;;;;1.85;0.20;;;;;;;;;;5011057;28;20033;-67
2021/05/15 01:41:13;;;;;;;6.47;0.52;;;;;;;;;;4994537;28;20026;-68
2021/05/15 01:43:40;;;;;;;0.95;0.20;;;;;;;;;;5011521;28;20101;-67
2021/05/15 01:46:08;;;;;;;0.38;0.10;;;;;;;;;;5013416;28;20045;-68
2021/05/15 01:48:35;;;;;;;2.20;0.32;;;;;;;;;;5010851;28;20038;-68
2021/05/15 01:51:11;;;;;;;0.75;0.17;;;;;;;;;;4995570;28;20096;-67
2021/05/15 01:53:40;;;;;;;2.28;0.35;;;;;;;;;;5010853;28;20036;-68
2021/05/15 01:56:09;;;;;;;1.95;0.40;;;;;;;;;;5013026;28;20014;-67
2021/05/15 01:58:36;;;;;;;1.40;0.30;;;;;;;;;;5011725;28;20018;-67
2021/05/15 02:01:04;;;;;;;2.28;0.22;;;;;;;;;;5012859;28;20475;-68
2021/05/15 02:03:31;;;;;;;0.68;0.13;;;;;;;;;;4991629;28;20025;-69
2021/05/15 02:05:59;;;;;;;1.23;0.30;;;;;;;;;;4994849;28;20447;-69
2021/05/15 02:08:26;;;;;;;1.23;0.10;;;;;;;;;;5011306;28;20026;-68
2021/05/15 02:10:56;;;;;;;0.57;0.15;;;;;;;;;;4994165;28;20104;-68
2021/05/15 02:13:25;;;;;;;3.67;0.30;;;;;;;;;;5011281;28;20057;-68
2021/05/15 02:15:53;;;;;;;1.30;0.10;;;;;;;;;;4992320;28;20391;-68
2021/05/15 02:18:20;;;;;;;0.30;0.10;;;;;;;;;;5011550;28;20025;-68
2021/05/15 02:20:47;;;;;;;2.70;0.38;;;;;;;;;;4995131;28;20070;-68
2021/05/15 02:23:14;;;;;;;1.65;0.30;;;;;;;;;;5007646;28;20092;-68
2021/05/15 02:25:42;;;;;;;0.70;0.10;;;;;;;;;;5012631;28;20080;-68
2021/05/15 02:28:09;;;;;;;3.00;0.13;;;;;;;;;;4993196;28;20030;-69
2021/05/15 02:30:37;;;;;;;2.88;0.20;;;;;;;;;;5012660;28;20036;-68
2021/05/15 02:33:04;;;;;;;0.40;0.10;;;;;;;;;;5010767;28;20026;-68
2021/05/15 02:35:31;;;;;;;0.55;0.10;;;;;;;;;;5012675;28;20026;-68
2021/05/15 02:37:58;;;;;;;0.55;0.17;;;;;;;;;;5010166;28;20076;-68
2021/05/15 02:40:26;;;;;;;0.57;0.10;;;;;;;;;;5011612;28;20030;-68
2021/05/15 02:42:53;;;;;;;2.58;0.10;;;;;;;;;;5010658;28;20034;-69
2021/05/15 02:45:21;;;;;;;8.43;0.32;;;;;;;;;;5012496;28;20030;-68
2021/05/15 02:47:50;;;;;;;0.10;0.10;;;;;;;;;;4992975;28;20073;-68
2021/05/15 02:50:17;;;;;;;1.00;0.20;;;;;;;;;;4994755;28;20077;-68
2021/05/15 02:52:45;;;;;;;0.40;0.10;;;;;;;;;;5010560;28;20451;-67
2021/05/15 02:55:13;;;;;;;2.60;0.10;;;;;;;;;;4991405;28;20066;-69
2021/05/15 02:57:41;;;;;;;0.65;0.20;;;;;;;;;;4992748;28;20479;-68
2021/05/15 03:00:09;;;;;;;1.27;0.43;;;;;;;;;;4994349;28;20135;-68
2021/05/15 03:02:36;;;;;;;1.63;0.20;;;;;;;;;;5011575;28;20029;-69
2021/05/15 03:05:07;;;;;;;1.17;0.10;;;;;;;;;;5007550;28;20433;-68
2021/05/15 03:07:34;;;;;;;1.30;0.10;;;;;;;;;;5010074;28;20014;-68
2021/05/15 03:10:01;;;;;;;1.88;0.15;;;;;;;;;;5030184;28;20029;-68
2021/05/15 03:12:29;;;;;;;0.40;0.00;;;;;;;;;;5035586;28;20029;-69
2021/05/15 03:14:56;;;;;;;0.45;0.10;;;;;;;;;;5011545;28;20125;-68
2021/05/15 03:17:23;;;;;;;2.00;0.47;;;;;;;;;;5008680;28;20041;-68
2021/05/15 03:19:52;;;;;;;1.85;0.30;;;;;;;;;;5012998;28;20029;-68
2021/05/15 03:22:23;;;;;;;0.50;0.13;;;;;;;;;;5034336;28;20536;-69
2021/05/15 03:24:51;;;;;;;3.55;0.80;;;;;;;;;;5030124;28;20052;-68
2021/05/15 03:27:18;;;;;;;4.07;1.23;;;;;;;;;;5017702;28;20025;-68
2021/05/15 03:29:45;;;;;;;3.88;1.90;;;;;;;;;;4994560;28;20050;-68
2021/05/15 03:32:13;;;;;;;0.50;0.10;;;;;;;;;;4996151;28;20026;-68
2021/05/15 03:34:40;;;;;;;1.75;0.40;;;;;;;;;;5010966;28;20032;-71
2021/05/15 03:37:07;;;;;;;5.05;4.03;;;;;;;;;;5015225;28;20018;-68
2021/05/15 03:39:34;;;;;;;2.25;0.88;;;;;;;;;;5002770;28;20014;-69
2021/05/15 03:42:01;;;;;;;0.52;0.32;;;;;;;;;;5015344;28;20422;-69
2021/05/15 03:44:28;;;;;;;1.52;0.10;;;;;;;;;;4994524;28;20034;-68
2021/05/15 03:46:56;;;;;;;0.65;0.10;;;;;;;;;;4997663;28;20037;-69
2021/05/15 03:49:23;;;;;;;0.57;0.00;;;;;;;;;;4996525;28;20033;-69
2021/05/15 03:51:50;;;;;;;1.23;0.10;;;;;;;;;;5015115;28;20030;-69
2021/05/15 03:54:17;;;;;;;6.43;0.40;;;;;;;;;;5012937;28;20038;-70
2021/05/15 03:56:44;;;;;;;2.25;0.30;;;;;;;;;;5015102;28;20025;-69
2021/05/15 03:59:11;;;;;;;0.98;0.10;;;;;;;;;;5013566;28;20123;-68
2021/05/15 04:01:38;;;;;;;0.77;0.10;;;;;;;;;;5015019;28;20379;-68
2021/05/15 04:04:06;;;;;;;0.55;0.13;;;;;;;;;;4996427;28;20040;-71
2021/05/15 04:06:33;;;;;;;0.73;0.10;;;;;;;;;;5009949;28;20030;-70
2021/05/15 04:09:00;;;;;;;2.08;0.10;;;;;;;;;;5014036;28;20032;-69
2021/05/15 04:11:34;;;;;;;0.32;0.03;;;;;;;;;;5011020;28;20025;-69
2021/05/15 04:14:22;;;;;;;1.85;0.43;;;;;;;;;;5011841;28;20069;-69
2021/05/15 04:17:13;;;;;;;0.93;0.30;;;;;;;;;;4996828;28;20046;-69
2021/05/15 04:19:40;;;;;;;2.15;0.20;;;;;;;;;;4995382;28;20033;-69
2021/05/15 04:22:08;;;;;;;5.88;0.20;;;;;;;;;;5013480;28;20479;-69
2021/05/15 04:24:35;;;;;;;1.92;0.00;;;;;;;;;;5012278;28;20029;-69
2021/05/15 04:27:03;;;;;;;0.38;0.00;;;;;;;;;;5014437;28;20513;-70
2021/05/15 04:29:30;;;;;;;3.30;0.20;;;;;;;;;;5013450;28;20030;-71
2021/05/15 04:31:58;;;;;;;0.50;0.10;;;;;;;;;;5012574;28;20032;-69
2021/05/15 04:34:28;;;;;;;2.10;0.28;;;;;;;;;;5012808;28;20022;-68
2021/05/15 04:36:55;;;;;;;1.67;0.20;;;;;;;;;;5014305;28;20026;-67
2021/05/15 04:39:22;;;;;;;0.70;0.15;;;;;;;;;;5012911;28;20026;-69
2021/05/15 04:41:51;;;;;;;0.17;0.00;;;;;;;;;;5014492;28;20018;-70
2021/05/15 04:44:18;;;;;;;3.05;0.40;;;;;;;;;;5012263;28;20120;-69
2021/05/15 04:46:47;;;;;;;0.30;0.10;;;;;;;;;;5014051;28;20061;-68
2021/05/15 04:49:14;;;;;;;0.55;0.20;;;;;;;;;;5012755;28;20057;-68
2021/05/15 04:51:41;;;;;;;3.05;0.95;;;;;;;;;;5014074;28;20025;-68
2021/05/15 04:54:09;;;;;;;1.48;0.25;;;;;;;;;;5012119;28;20048;-69
2021/05/15 04:56:36;;;;;;;5.25;0.45;;;;;;;;;;5014037;28;20102;-69
2021/05/15 04:59:07;;;;;;;3.03;0.30;;;;;;;;;;5011984;28;20022;-68
2021/05/15 05:01:34;;;;;;;1.65;0.30;;;;;;;;;;4995206;28;20048;-68
2021/05/15 05:04:03;;;;;;;2.40;0.65;;;;;;;;;;5011888;28;20038;-70
2021/05/15 05:06:30;;;;;;;1.92;0.30;;;;;;;;;;5008426;28;20070;-68
2021/05/15 05:08:58;;;;;;;0.90;0.20;;;;;;;;;;5010563;28;20108;-68
2021/05/15 05:11:25;;;;;;;2.88;0.13;;;;;;;;;;4996075;28;20037;-68
2021/05/15 05:13:52;;;;;;;2.17;0.30;;;;;;;;;;5010929;28;20025;-68
2021/05/15 05:16:20;;;;;;;3.40;0.50;;;;;;;;;;5010459;28;20069;-68
2021/05/15 05:18:47;;;;;;;0.60;0.03;;;;;;;;;;5011056;28;20026;-68
2021/05/15 05:21:14;;;;;;;2.85;0.20;;;;;;;;;;4996118;28;20030;-69
2021/05/15 05:23:41;;;;;;;0.98;0.10;;;;;;;;;;5011988;28;20033;-68
2021/05/15 05:26:09;;;;;;;1.67;0.30;;;;;;;;;;5013642;28;20049;-68
2021/05/15 05:28:36;;;;;;;1.25;0.10;;;;;;;;;;4995063;28;20030;-68
2021/05/15 05:31:04;;;;;;;2.15;0.10;;;;;;;;;;5013568;28;20022;-68
2021/05/15 05:33:32;;;;;;;1.45;0.10;;;;;;;;;;5010906;28;20497;-68
2021/05/15 05:35:59;;;;;;;2.65;0.50;;;;;;;;;;4995544;28;20036;-69
2021/05/15 05:38:26;;;;;;;1.52;0.60;;;;;;;;;;5012014;28;20018;-68
2021/05/15 05:40:53;;;;;;;1.98;0.77;;;;;;;;;;4995445;28;20034;-69
2021/05/15 05:43:20;;;;;;;2.10;0.75;;;;;;;;;;5011257;28;20030;-68
2021/05/15 05:45:48;;;;;;;2.45;0.47;;;;;;;;;;5009717;28;20437;-68
2021/05/15 05:48:18;;;;;;;0.85;0.20;;;;;;;;;;5011478;28;20073;-68
2021/05/15 05:50:46;;;;;;;1.67;0.20;;;;;;;;;;5012900;28;20479;-68
2021/05/15 05:53:14;;;;;;;3.13;0.75;;;;;;;;;;5010911;28;20030;-68
2021/05/15 05:55:41;;;;;;;0.40;0.25;;;;;;;;;;5011990;28;20033;-67
2021/05/15 05:58:08;;;;;;;2.25;0.40;;;;;;;;;;4979439;28;20021;-69
2021/05/15 06:00:35;;;;;;;3.78;0.50;;;;;;;;;;5006021;28;20066;-68
2021/05/15 06:03:02;;;;;;;0.88;0.45;;;;;;;;;;4978172;28;20096;-67
2021/05/15 06:05:29;;;;;;;1.00;0.52;;;;;;;;;;5011707;28;20033;-68
2021/05/15 06:08:05;;;;;;;0.63;0.20;;;;;;;;;;5010519;28;20069;-67
2021/05/15 06:10:32;;;;;;;1.13;0.20;;;;;;;;;;4995142;28;20600;-68
2021/05/15 06:12:59;;;;;;;0.28;0.17;;;;;;;;;;4993810;28;20887;-68
2021/05/15 06:15:26;;;;;;;0.60;0.10;;;;;;;;;;4996793;28;20043;-68
2021/05/15 06:17:53;;;;;;;0.63;0.30;;;;;;;;;;4976580;28;20121;-67
2021/05/15 06:20:20;;;;;;;4.70;0.20;;;;;;;;;;4995079;28;20026;-67
2021/05/15 06:22:47;;;;;;;2.13;0.20;;;;;;;;;;4992192;28;20030;-68
2021/05/15 06:25:15;;;;;;;6.53;0.20;;;;;;;;;;5012811;28;20482;-66
2021/05/15 06:27:42;;;;;;;0.88;0.15;;;;;;;;;;5011490;28;20029;-67
2021/05/15 06:30:09;;;;;;;1.98;0.22;;;;;;;;;;5012095;28;20022;-68
2021/05/15 06:32:36;;;;;;;0.50;0.10;;;;;;;;;;4994205;28;20026;-68
2021/05/15 06:35:04;;;;;;;0.98;0.20;;;;;;;;;;5011938;28;20114;-68
2021/05/15 06:37:31;;;;;;;2.05;0.25;;;;;;;;;;5012576;28;20026;-67
2021/05/15 06:39:58;;;;;;;1.63;0.60;;;;;;;;;;5010488;28;20510;-68
2021/05/15 06:42:25;;;;;;;0.82;0.20;;;;;;;;;;4994766;28;20029;-69
2021/05/15 06:44:52;;;;;;;1.10;0.20;;;;;;;;;;5010353;28;20030;-68
2021/05/15 06:47:19;;;;;;;1.35;0.30;;;;;;;;;;5016615;28;20025;-68
2021/05/15 06:49:48;;;;;;;3.40;0.20;;;;;;;;;;5014632;28;20065;-68
2021/05/15 06:52:16;;;;;;;13.10;1.17;;;;;;;;;;4997036;28;20512;-67
2021/05/15 06:54:44;;;;;;;2.17;0.20;;;;;;;;;;5009933;28;20553;-68
2021/05/15 06:57:11;;;;;;;0.52;0.10;;;;;;;;;;5014791;28;20073;-68
2021/05/15 06:59:38;;;;;;;2.03;0.20;;;;;;;;;;5012878;28;20057;-68
2021/05/15 07:02:05;;;;;;;2.25;0.30;;;;;;;;;;4998653;28;20034;-69
2021/05/15 07:04:32;;;;;;;2.63;0.30;;;;;;;;;;5013995;28;20030;-69
2021/05/15 07:06:59;;;;;;;2.83;0.22;;;;;;;;;;5016033;28;20029;-68
2021/05/15 07:09:26;;;;;;;2.83;0.85;;;;;;;;;;5014435;28;20022;-69
2021/05/15 07:11:53;;;;;;;2.30;0.63;;;;;;;;;;5015945;28;20083;-68
2021/05/15 07:14:20;;;;;;;0.90;0.30;;;;;;;;;;5012674;28;20033;-68
2021/05/15 07:16:47;;;;;;;1.52;0.80;;;;;;;;;;4998168;28;20046;-68
2021/05/15 07:19:15;;;;;;;1.23;0.20;;;;;;;;;;5013361;28;20101;-68
2021/05/15 07:21:42;;;;;;;1.33;0.20;;;;;;;;;;5015861;28;20022;-69
2021/05/15 07:24:09;;;;;;;1.20;0.30;;;;;;;;;;5013700;28;20426;-69
2021/05/15 07:26:37;;;;;;;6.70;0.32;;;;;;;;;;5015727;28;20463;-68
2021/05/15 07:29:04;;;;;;;0.50;0.20;;;;;;;;;;5014489;28;20030;-68
2021/05/15 07:31:31;;;;;;;2.08;0.30;;;;;;;;;;5015542;28;20026;-68
2021/05/15 07:34:01;;;;;;;2.33;0.40;;;;;;;;;;5013470;28;20088;-68
2021/05/15 07:36:28;;;;;;;3.15;0.30;;;;;;;;;;5014051;28;20018;-69
2021/05/15 07:38:55;;;;;;;3.15;0.38;;;;;;;;;;5013554;28;20049;-68
2021/05/15 07:41:25;;;;;;;0.95;0.40;;;;;;;;;;5015584;28;20022;-68
2021/05/15 07:43:52;;;;;;;2.60;1.42;;;;;;;;;;5014020;28;20497;-68
2021/05/15 07:46:19;;;;;;;2.10;0.68;;;;;;;;;;5013291;28;20462;-68
2021/05/15 07:48:47;;;;;;;3.40;0.65;;;;;;;;;;4993129;28;20084;-69
2021/05/15 07:51:21;;;;;;;0.90;0.40;;;;;;;;;;4994618;28;20112;-68
2021/05/15 07:53:51;;;;;;;3.00;0.80;;;;;;;;;;4995781;28;20383;-69
2021/05/15 07:56:18;;;;;;;3.60;0.90;;;;;;;;;;5014906;28;20038;-68
2021/05/15 07:58:46;;;;;;;1.73;0.63;;;;;;;;;;5013438;28;20238;-68
2021/05/15 08:01:13;;;;;;;2.13;0.32;;;;;;;;;;4997239;28;20117;-68
2021/05/15 08:03:40;;;;;;;2.38;0.40;;;;;;;;;;5011598;28;20026;-68
2021/05/15 08:06:07;;;;;;;2.15;0.30;;;;;;;;;;5014825;28;20014;-68
2021/05/15 08:08:34;;;;;;;1.83;0.30;;;;;;;;;;4995461;28;20080;-68
2021/05/15 08:11:02;;;;;;;1.60;1.17;;;;;;;;;;4997212;28;20664;-68
2021/05/15 08:13:29;;;;;;;2.92;1.40;;;;;;;;;;4994490;28;20474;-67
2021/05/15 08:15:56;;;;;;;2.40;1.17;;;;;;;;;;5012999;28;20077;-67
2021/05/15 08:18:23;;;;;;;2.28;0.77;;;;;;;;;;5012999;28;20025;-67
2021/05/15 08:20:50;;;;;;;1.13;0.50;;;;;;;;;;5014610;28;20018;-68
2021/05/15 08:23:17;;;;;;;1.45;0.60;;;;;;;;;;5013040;28;20038;-68
2021/05/15 08:25:45;;;;;;;2.55;0.52;;;;;;;;;;5014201;28;20101;-69
2021/05/15 08:28:13;;;;;;;4.38;0.82;;;;;;;;;;4995045;28;20079;-68
2021/05/15 08:30:41;;;;;;;2.60;1.15;;;;;;;;;;4996773;28;20030;-67
2021/05/15 08:33:09;;;;;;;2.00;0.60;;;;;;;;;;5012805;28;20030;-68
2021/05/15 08:35:37;;;;;;;6.22;2.70;;;;;;;;;;5014332;28;20018;-68
2021/05/15 08:38:05;;;;;;;4.93;1.60;;;;;;;;;;5012566;28;20030;-68
2021/05/15 08:40:33;;;;;;;2.97;0.80;;;;;;;;;;5011894;28;20509;-68
2021/05/15 08:43:01;;;;;;;4.20;0.50;;;;;;;;;;5011928;28;20034;-68
2021/05/15 08:45:28;;;;;;;6.63;2.10;;;;;;;;;;4998721;28;20393;-67
2021/05/15 08:47:57;;;;;;;1.15;0.52;;;;;;;;;;4995848;28;20897;-68
2021/05/15 08:50:26;;;;;;;3.65;0.50;;;;;;;;;;5012572;28;20028;-68
2021/05/15 08:52:54;;;;;;;2.85;0.85;;;;;;;;;;5011248;28;20037;-68
2021/05/15 08:55:23;;;;;;;2.10;0.63;;;;;;;;;;5014174;28;20029;-68
2021/05/15 08:57:53;;;;;;;1.95;0.90;;;;;;;;;;4994969;28;20037;-68
2021/05/15 09:00:22;;;;;;;4.78;3.20;;;;;;;;;;5013968;28;20025;-68
2021/05/15 09:02:51;;;;;;;2.63;1.42;;;;;;;;;;5012269;28;20099;-68
2021/05/15 09:05:19;;;;;;;5.93;3.88;;;;;;;;;;5013878;28;20026;-68
2021/05/15 09:07:49;;;;;;;3.63;2.40;;;;;;;;;;5000910;28;20061;-68
2021/05/15 09:10:18;;;;;;;3.90;1.02;;;;;;;;;;4993871;28;20041;-69
2021/05/15 09:12:45;;;;;;;3.08;0.55;;;;;;;;;;4994328;28;20081;-68
2021/05/15 09:15:14;;;;;;;2.20;0.70;;;;;;;;;;5000060;28;20077;-68
2021/05/15 09:17:45;;;;;;;1.70;0.52;;;;;;;;;;5007771;28;20018;-68
2021/05/15 09:20:23;;;;;;;2.63;0.80;;;;;;;;;;4995254;28;20497;-68
2021/05/15 09:22:50;;;;;;;1.25;0.60;;;;;;;;;;5011716;28;20065;-68
2021/05/15 09:25:17;;;;;;;4.10;1.02;;;;;;;;;;5013210;28;20025;-68
2021/05/15 09:27:45;;;;;;;3.78;2.30;;;;;;;;;;5010359;28;20025;-68
2021/05/15 09:30:12;;;;;;;6.40;4.60;;;;;;;;;;4976402;28;21041;-68
2021/05/15 09:32:40;;;;;;;12.10;7.20;;;;;;;;;;4993622;28;20018;-68
2021/05/15 09:35:07;;;;;;;8.70;5.05;;;;;;;;;;5012588;28;20475;-68
2021/05/15 09:37:39;;;;;;;4.38;2.67;;;;;;;;;;4992657;28;20037;-68
2021/05/15 09:40:20;;;;;;;4.60;1.02;;;;;;;;;;5012148;28;20033;-67
2021/05/15 09:42:50;;;;;;;2.70;0.70;;;;;;;;;;5011181;28;20628;-69
2021/05/15 09:45:22;;;;;;;2.28;0.60;;;;;;;;;;5013499;28;20478;-68
2021/05/15 09:47:53;;;;;;;6.95;2.55;;;;;;;;;;5011375;28;20029;-68
2021/05/15 09:50:21;;;;;;;6.25;4.22;;;;;;;;;;4995373;28;20061;-68
2021/05/15 09:52:48;;;;;;;2.67;1.75;;;;;;;;;;4993594;28;20034;-68
2021/05/15 09:55:16;;;;;;;11.50;6.38;;;;;;;;;;4994375;28;20188;-68
2021/05/15 09:57:43;;;;;;;4.72;2.10;;;;;;;;;;5012170;28;20378;-68
2021/05/15 10:00:14;;;;;;;5.03;1.70;;;;;;;;;;4995317;28;20033;-68
2021/05/15 10:02:41;;;;;;;3.40;0.77;;;;;;;;;;5011754;28;20018;-68
2021/05/15 10:05:12;;;;;;;2.13;0.55;;;;;;;;;;4992052;28;20034;-69
2021/05/15 10:07:39;;;;;;;3.30;0.80;;;;;;;;;;4994247;28;20546;-68
2021/05/15 10:10:08;;;;;;;2.30;1.20;;;;;;;;;;5012402;28;20026;-69
2021/05/15 10:12:36;;;;;;;2.45;1.17;;;;;;;;;;4994383;28;20030;-68
2021/05/15 10:15:05;;;;;;;2.63;0.93;;;;;;;;;;5010647;28;20049;-68
2021/05/15 10:17:32;;;;;;;3.38;0.98;;;;;;;;;;5012835;28;20022;-68
2021/05/15 10:19:59;;;;;;;2.75;0.95;;;;;;;;;;5009933;28;20029;-69
2021/05/15 10:22:26;;;;;;;2.58;1.02;;;;;;;;;;5012466;28;20028;-68
2021/05/15 10:24:55;;;;;;;2.30;0.77;;;;;;;;;;5010918;28;20033;-69
2021/05/15 10:27:22;;;;;;;2.15;1.00;;;;;;;;;;5012357;28;20026;-68
2021/05/15 10:29:53;;;;;;;1.45;0.60;;;;;;;;;;5010942;28;20053;-68
2021/05/15 10:32:20;;;;;;;4.22;1.05;;;;;;;;;;5004790;28;20069;-68
2021/05/15 10:34:49;;;;;;;5.35;1.02;;;;;;;;;;5010893;28;20109;-68
2021/05/15 10:37:19;;;;;;;5.57;1.67;;;;;;;;;;5012411;28;20109;-68
2021/05/15 10:39:50;;;;;;;1.80;0.88;;;;;;;;;;4993288;28;20057;-68
2021/05/15 10:42:31;;;;;;;2.80;0.82;;;;;;;;;;5010555;28;20077;-69
2021/05/15 10:44:58;;;;;;;1.77;0.70;;;;;;;;;;5011200;28;20029;-68
2021/05/15 10:47:26;;;;;;;3.58;1.08;;;;;;;;;;4995096;28;20057;-68
2021/05/15 10:50:12;;;;;;;2.70;0.90;;;;;;;;;;5010369;28;20026;-68
2021/05/15 10:52:45;;;;;;;2.33;0.88;;;;;;;;;;5011110;28;20045;-68
2021/05/15 10:55:13;;;;;;;2.22;0.73;;;;;;;;;;5012479;28;20475;-68
2021/05/15 10:57:40;;;;;;;2.67;0.90;;;;;;;;;;5011325;28;20544;-68
2021/05/15 11:00:09;;;;;;;5.38;1.40;;;;;;;;;;4994135;28;20030;-68
2021/05/15 11:02:37;;;;;;;2.42;0.90;;;;;;;;;;5011680;28;20034;-67
2021/05/15 11:05:11;;;;;;;2.42;0.70;;;;;;;;;;5011865;28;20500;-68
2021/05/15 11:07:40;;;;;;;1.75;0.70;;;;;;;;;;5010730;28;20030;-68
2021/05/15 11:10:11;;;;;;;2.63;1.02;;;;;;;;;;5010635;28;20137;-69
2021/05/15 11:12:40;;;;;;;2.97;0.95;;;;;;;;;;4993709;28;20030;-68
2021/05/15 11:15:08;;;;;;;3.40;0.80;;;;;;;;;;5010632;28;20050;-68
2021/05/15 11:17:35;;;;;;;2.10;0.73;;;;;;;;;;5011860;28;20026;-68
2021/05/15 11:20:05;;;;;;;3.95;0.80;;;;;;;;;;5010751;28;20026;-68
2021/05/15 11:22:49;;;;;;;3.60;0.50;;;;;;;;;;5012131;28;20425;-68
2021/05/15 11:25:16;;;;;;;4.40;0.82;;;;;;;;;;4993820;28;20513;-68
2021/05/15 11:27:49;;;;;;;2.97;0.95;;;;;;;;;;4986388;28;20121;-68
2021/05/15 11:30:27;;;;;;;2.30;0.90;;;;;;;;;;5012116;28;20038;-68
2021/05/15 11:32:57;;;;;;;0.95;0.60;;;;;;;;;;5011818;28;20030;-68
2021/05/15 11:35:25;;;;;;;0.95;0.65;;;;;;;;;;5015442;28;20014;-68
2021/05/15 11:38:02;;;;;;;2.40;1.00;;;;;;;;;;5013674;28;20026;-68
2021/05/15 11:40:29;;;;;;;2.90;0.93;;;;;;;;;;5015574;28;20530;-68
2021/05/15 11:42:56;;;;;;;2.90;0.73;;;;;;;;;;5010893;28;20041;-68
2021/05/15 11:45:27;;;;;;;5.50;1.25;;;;;;;;;;5015404;28;20018;-68
2021/05/15 11:48:07;;;;;;;3.50;1.30;;;;;;;;;;5014229;28;20125;-68
2021/05/15 11:50:34;;;;;;;4.30;1.63;;;;;;;;;;5015177;28;20034;-68
2021/05/15 11:53:02;;;;;;;4.93;1.83;;;;;;;;;;4995556;28;20026;-68
2021/05/15 11:55:30;;;;;;;2.88;1.52;;;;;;;;;;5012857;28;20036;-68
2021/05/15 11:57:58;;;;;;;4.45;1.50;;;;;;;;;;5013089;28;20030;-68
2021/05/15 12:00:29;;;;;;;3.38;1.85;;;;;;;;;;5015001;28;20536;-68
2021/05/15 12:02:56;;;;;;;3.80;1.95;;;;;;;;;;5013265;28;20049;-68
2021/05/15 12:05:24;;;;;;;3.63;1.70;;;;;;;;;;5009600;28;20033;-68
2021/05/15 12:07:52;;;;;;;4.20;2.25;;;;;;;;;;4995076;28;20050;-68
2021/05/15 12:10:23;;;;;;;3.13;1.70;;;;;;;;;;4997272;28;20033;-68
2021/05/15 12:12:54;;;;;;;3.42;2.13;;;;;;;;;;5012794;28;20033;-68
2021/05/15 12:15:21;;;;;;;4.80;2.47;;;;;;;;;;5013299;28;20180;-68
2021/05/15 12:17:48;;;;;;;5.00;1.65;;;;;;;;;;5013104;28;20022;-68
2021/05/15 12:20:34;;;;;;;3.65;1.50;;;;;;;;;;5012173;28;20037;-68
2021/05/15 12:23:08;;;;;;;3.50;1.63;;;;;;;;;;4981770;28;20444;-68
2021/05/15 12:25:35;;;;;;;3.25;1.00;;;;;;;;;;5014408;28;20026;-68
2021/05/15 12:28:02;;;;;;;2.35;0.80;;;;;;;;;;5012170;28;20077;-68
2021/05/15 12:30:29;;;;;;;1.42;0.60;;;;;;;;;;5014757;28;20032;-68
2021/05/15 12:33:04;;;;;;;3.75;1.00;;;;;;;;;;5012037;28;20393;-68
2021/05/15 12:35:31;;;;;;;3.70;0.82;;;;;;;;;;5014442;28;20449;-68
2021/05/15 12:37:58;;;;;;;2.40;0.65;;;;;;;;;;5012184;28;20029;-68
2021/05/15 12:40:30;;;;;;;1.20;0.47;;;;;;;;;;5014292;28;20537;-68
2021/05/15 12:43:22;;;;;;;1.98;0.55;;;;;;;;;;5010897;28;20042;-68
2021/05/15 12:45:51;;;;;;;1.80;0.38;;;;;;;;;;5014569;28;20416;-68
2021/05/15 12:48:35;;;;;;;2.35;0.52;;;;;;;;;;5013072;28;20238;-68
2021/05/15 12:51:03;;;;;;;2.53;0.40;;;;;;;;;;5013952;28;20025;-68
2021/05/15 12:53:31;;;;;;;1.05;0.38;;;;;;;;;;4995480;28;20161;-68
2021/05/15 12:55:58;;;;;;;0.70;0.40;;;;;;;;;;5014102;28;20112;-67
2021/05/15 12:58:26;;;;;;;0.82;0.45;;;;;;;;;;5011584;28;20028;-67
2021/05/15 13:01:03;;;;;;;1.45;0.90;;;;;;;;;;4996602;28;20418;-67
2021/05/15 13:03:31;;;;;;;1.80;0.50;;;;;;;;;;5014616;28;20125;-68
2021/05/15 13:05:58;;;;;;;3.15;0.55;;;;;;;;;;4996333;28;20030;-67
2021/05/15 13:08:33;;;;;;;2.08;0.45;;;;;;;;;;5012464;28;20025;-68
2021/05/15 13:11:10;;;;;;;1.00;0.40;;;;;;;;;;4994515;28;20034;-68
2021/05/15 13:13:37;;;;;;;1.75;0.40;;;;;;;;;;5012637;28;20022;-68
2021/05/15 13:16:05;;;;;;;3.35;0.50;;;;;;;;;;4991796;28;20159;-68
2021/05/15 13:18:32;;;;;;;2.33;0.40;;;;;;;;;;5011967;28;20383;-67
2021/05/15 13:20:59;;;;;;;1.23;0.40;;;;;;;;;;5013771;28;20030;-68
2021/05/15 13:23:26;;;;;;;3.35;0.73;;;;;;;;;;5011758;28;20505;-68
2021/05/15 13:25:54;;;;;;;0.30;0.20;;;;;;;;;;5013324;28;20430;-68
2021/05/15 13:28:21;;;;;;;1.60;0.50;;;;;;;;;;5011716;28;20030;-68
2021/05/15 13:30:48;;;;;;;3.40;0.43;;;;;;;;;;5013376;28;20360;-69
2021/05/15 13:33:15;;;;;;;4.47;0.50;;;;;;;;;;5010266;28;20030;-68
2021/05/15 13:35:42;;;;;;;1.90;0.50;;;;;;;;;;5013086;28;20029;-68
2021/05/15 13:38:10;;;;;;;1.38;0.60;;;;;;;;;;5011815;28;20030;-68
2021/05/15 13:40:40;;;;;;;7.75;0.40;;;;;;;;;;5013191;28;20170;-68
2021/05/15 13:43:09;;;;;;;2.45;0.47;;;;;;;;;;5011139;28;20034;-69
2021/05/15 13:45:36;;;;;;;1.63;0.32;;;;;;;;;;4995287;28;20084;-68
2021/05/15 13:48:03;;;;;;;2.58;0.65;;;;;;;;;;5008675;28;20156;-68
2021/05/15 13:50:30;;;;;;;2.25;0.30;;;;;;;;;;5013012;28;20426;-68
2021/05/15 13:52:57;;;;;;;1.23;0.28;;;;;;;;;;5010998;28;20130;-68
2021/05/15 13:55:25;;;;;;;1.38;0.40;;;;;;;;;;5012823;28;20026;-68
2021/05/15 13:57:52;;;;;;;0.77;0.28;;;;;;;;;;5011787;28;20172;-68
2021/05/15 14:00:21;;;;;;;2.20;0.40;;;;;;;;;;5012123;28;20026;-68
2021/05/15 14:02:48;;;;;;;3.40;0.47;;;;;;;;;;5011196;28;20014;-68
2021/05/15 14:05:16;;;;;;;3.33;0.30;;;;;;;;;;4995129;28;20053;-68
2021/05/15 14:07:43;;;;;;;1.25;0.30;;;;;;;;;;5011656;28;20088;-67
2021/05/15 14:10:12;;;;;;;2.13;0.65;;;;;;;;;;5006546;28;20109;-68
2021/05/15 14:12:39;;;;;;;1.63;0.30;;;;;;;;;;4992857;28;20101;-68
2021/05/15 14:15:08;;;;;;;0.85;0.30;;;;;;;;;;5010569;28;20129;-68
2021/05/15 14:17:35;;;;;;;1.67;0.52;;;;;;;;;;5012237;28;20410;-68
2021/05/15 14:20:02;;;;;;;2.50;0.40;;;;;;;;;;5010025;28;20130;-67
2021/05/15 14:22:29;;;;;;;2.42;0.40;;;;;;;;;;4994900;28;20033;-68
2021/05/15 14:24:57;;;;;;;1.42;0.40;;;;;;;;;;5009566;28;20398;-67
2021/05/15 14:27:26;;;;;;;1.15;0.40;;;;;;;;;;5012626;28;20033;-67
2021/05/15 14:29:53;;;;;;;4.15;0.70;;;;;;;;;;5011194;28;20022;-67
2021/05/15 14:32:21;;;;;;;2.45;0.47;;;;;;;;;;5012909;28;20056;-68
2021/05/15 14:34:48;;;;;;;1.90;0.50;;;;;;;;;;5010971;28;20034;-67
2021/05/15 14:37:15;;;;;;;3.20;0.63;;;;;;;;;;4994898;28;20444;-67
2021/05/15 14:39:42;;;;;;;1.35;0.20;;;;;;;;;;5011552;28;20108;-67
2021/05/15 14:42:09;;;;;;;1.20;0.30;;;;;;;;;;4994873;28;20117;-67
2021/05/15 14:44:36;;;;;;;2.28;0.60;;;;;;;;;;5010948;28;20049;-67
2021/05/15 14:47:03;;;;;;;2.08;0.70;;;;;;;;;;5012418;28;20421;-67
2021/05/15 14:49:31;;;;;;;1.73;0.40;;;;;;;;;;5010603;28;20061;-67